Libourne-Artigues-de-Lussac Airport

LFDI · Gironde, Nouvelle-Aquitaine, 法国

罗盘
风向 的 风向 010° Libourne-Artigues-de-Lussac Airport 4/22
风: 8 kt, 3 beaufort

7 kt

3 kt
改变
0 ft 1.000 2.000 3.000 4.000 5.000
CAVOK
METAR LFBD 052300Z AUTO 01008KT CAVOK 07/04 Q1037

METAR Libourne-Artigues-de-Lussac Airport - LFDI

Libourne-Artigues-de-Lussac Airport是,法国中的中型机场。 该机场有一条跑道: 4/22. 该领域的国际民航组织标志是LFDI.

这份报告是针对2023年2月6日 00:00, 当地时间在Bordeaux-Mérignac Airport进行的。

机场观察

风向为010°,速度为8 kt。

天气为CAVOK。这意味着在5.000 ft或MSA(最低安全高度)以下(以较高者为准)以下没有云。这也意味着没有观测到积雨云或高耸的积云,可见度为10 km 或者更多或更高。此外,不会有雾,降雨或其他重要天气。

温度为7 °C,阵风为3 °C。 露点为4 °C,相对湿度为81%。 海平面上的气压为1037 hPa (QNH)。

白天

今天,太阳从08:15升起,在18:13降落。 这适用于Libourne-Artigues-de-Lussac Airport,世界夏令时可能有所不同。 当地时间与世界标准时间之间的时差为+1 小时。 当前,没有夏令时有效。

公司介绍

在这个机场,你可以找到飞行俱乐部。 本场上唯一已知的公司是Libourne Aéroclub。

体会

到Vliegles.nl去找飞行课程,跳伞和其他飞行体验。 浏览页面,了解Libourne-Artigues-de-Lussac Airport附近所有可用的活动。 你也可以使用搜索功能来寻找你所在地附近的特定飞行课程、跳伞或其他飞行体验。

跑道

Id 标题 侧风 逆风 侧风 %
4/22 035°-215° 3 kt 7 kt 42 %

逆风成分最大的方向会被突出显示,并用于横风计算。 这并不一定意味着这个方向在使用。

温度 & 天气

温度 7 °C
露点 4 °C
相对湿度 81%
风寒 3 °C
Kp-index 2 (0-9)

白天

日出
08:17 (8:01)
中午
13:16
日落
18:16

小工具

你想在你的网站上有一个关于Libourne-Artigues-de-Lussac Airport的当前航空天气(METAR)的小部件吗?

显示HTML代码

我们和第三方通过cookies跟踪您在我们网站上的互联网行为。如果你继续,我们认为你同意我们的饼干政策